Time;durP1;ratioP1;P1;durP2;ratioP2;P2;SDS_P1;SDS_P2;PMS_P1;PMS_P2;Temp;Humidity;BMP_temperature;BMP_pressure;BME280_temperature;BME280_humidity;BME280_pressure;Samples;Min_cycle;Max_cycle;Signal;HPM_P1;HPM_P2
2022/12/27 15:03:26;;;;;;;22.00;4.15;;;6.50;86.60;;;;;;5143709;27;20101;-62
2022/12/27 15:06:03;;;;;;;13.90;3.67;;;6.60;86.70;;;;;;5110737;28;20071;-62
2022/12/27 15:09:01;;;;;;;5.43;2.97;;;6.70;86.40;;;;;;5110637;28;20024;-63
2022/12/27 15:11:49;;;;;;;9.80;2.88;;;6.80;86.10;;;;;;5088533;28;20042;-62
2022/12/27 15:14:45;;;;;;;15.30;3.85;;;6.80;85.80;;;;;;5109398;28;20020;-63
2022/12/27 15:17:39;;;;;;;10.40;3.05;;;6.80;85.70;;;;;;5090421;28;20082;-64
2022/12/27 15:20:40;;;;;;;9.98;3.05;;;6.80;85.90;;;;;;5090200;28;20484;-64
2022/12/27 15:23:41;;;;;;;11.98;2.80;;;6.80;85.70;;;;;;5105753;28;20032;-64
2022/12/27 15:26:27;;;;;;;;;;;6.90;85.50;;;;;;5090800;28;20039;-62
2022/12/27 15:29:16;;;;;;;10.13;3.25;;;6.90;85.40;;;;;;5078254;28;19905;-63
2022/12/27 15:31:45;;;;;;;8.40;3.03;;;6.90;85.60;;;;;;5089786;28;20024;-63
2022/12/27 15:34:32;;;;;;;11.65;3.85;;;6.90;85.50;;;;;;5090019;28;20035;-64
2022/12/27 15:36:58;;;;;;;7.07;3.58;;;6.80;85.30;;;;;;5089314;28;20024;-63
2022/12/27 15:39:32;;;;;;;6.30;2.55;;;6.80;85.50;;;;;;5089401;28;20024;-62
2022/12/27 15:42:13;;;;;;;5.65;2.80;;;6.80;85.40;;;;;;5089201;28;20060;-63
2022/12/27 15:44:51;;;;;;;8.38;2.83;;;6.80;85.40;;;;;;5089396;28;20056;-63
2022/12/27 15:47:22;;;;;;;14.75;3.65;;;6.80;85.30;;;;;;5089074;28;20030;-63
2022/12/27 15:50:09;;;;;;;11.82;3.25;;;6.80;85.30;;;;;;5087992;28;20477;-62
2022/12/27 15:53:08;;;;;;;10.82;2.42;;;6.80;85.20;;;;;;5089070;28;20407;-61
2022/12/27 15:56:16;;;;;;;10.35;4.03;;;6.80;85.40;;;;;;5089414;28;20103;-63
2022/12/27 15:58:42;;;;;;;10.93;3.15;;;6.70;85.60;;;;;;5088291;28;20123;-62
2022/12/27 16:01:26;;;;;;;7.82;2.88;;;6.70;85.30;;;;;;5087353;28;20091;-63
2022/12/27 16:03:54;;;;;;;14.50;3.25;;;6.80;85.00;;;;;;5089097;28;20024;-62
2022/12/27 16:06:35;;;;;;;11.30;3.08;;;6.80;85.20;;;;;;5088848;28;20024;-63
2022/12/27 16:09:22;;;;;;;8.23;2.65;;;6.80;85.00;;;;;;5087923;28;20476;-64
2022/12/27 16:12:02;;;;;;;7.07;2.20;;;6.80;84.90;;;;;;5087699;28;20064;-63
2022/12/27 16:14:30;;;;;;;14.05;2.50;;;6.80;84.50;;;;;;5075589;28;20498;-63
2022/12/27 16:17:20;;;;;;;13.18;2.17;;;6.80;84.60;;;;;;5076019;28;20472;-63
2022/12/27 16:20:16;;;;;;;8.93;2.85;;;6.90;84.50;;;;;;5075541;28;20028;-64
2022/12/27 16:22:55;;;;;;;10.13;2.35;;;6.90;84.30;;;;;;5074500;28;20036;-64
2022/12/27 16:25:27;;;;;;;14.77;7.72;;;6.90;84.50;;;;;;5075376;28;20093;-63
2022/12/27 16:28:07;;;;;;;19.70;12.48;;;7.00;84.10;;;;;;5075168;28;20031;-63
2022/12/27 16:30:47;;;;;;;13.32;6.45;;;7.10;83.70;;;;;;5074050;28;20016;-64
2022/12/27 16:33:25;;;;;;;8.00;4.77;;;7.00;83.40;;;;;;5075577;28;20032;-62
2022/12/27 16:36:22;;;;;;;9.15;2.80;;;7.00;83.70;;;;;;5075072;28;20267;-63
2022/12/27 16:38:52;;;;;;;19.80;4.10;;;6.90;83.50;;;;;;5075515;28;20032;-63
2022/12/27 16:41:20;;;;;;;8.48;2.53;;;6.90;83.50;;;;;;5075318;28;20408;-63
2022/12/27 16:44:01;;;;;;;13.90;3.33;;;6.90;83.60;;;;;;5075266;28;20024;-64
2022/12/27 16:46:51;;;;;;;7.38;2.15;;;7.00;83.00;;;;;;5075177;28;20056;-62
2022/12/27 16:49:45;;;;;;;23.85;7.30;;;7.00;82.80;;;;;;5075148;28;20032;-62
2022/12/27 16:52:16;;;;;;;12.25;2.75;;;7.10;82.70;;;;;;5075415;28;20055;-63
2022/12/27 16:54:50;;;;;;;16.95;4.00;;;7.00;82.60;;;;;;5074693;28;20029;-63
2022/12/27 16:57:27;;;;;;;10.20;2.33;;;7.10;82.20;;;;;;5073270;28;20071;-63
2022/12/27 17:00:30;;;;;;;12.23;3.92;;;7.10;82.30;;;;;;5074690;28;20035;-63
2022/12/27 17:03:28;;;;;;;9.50;2.65;;;7.20;81.80;;;;;;5074341;28;20052;-63
2022/12/27 17:05:54;;;;;;;10.25;2.92;;;7.30;81.40;;;;;;5089303;28;20024;-62
2022/12/27 17:08:25;;;;;;;5.32;1.80;;;7.30;80.90;;;;;;5074837;28;20484;-64
2022/12/27 17:10:50;;;;;;;;;;;7.30;80.40;;;;;;5075245;28;20017;-62
2022/12/27 17:13:44;;;;;;;4.03;1.50;;;7.40;80.10;;;;;;5074623;28;20428;-63
2022/12/27 17:16:10;;;;;;;5.10;2.67;;;7.40;80.10;;;;;;5074328;28;20048;-64
2022/12/27 17:19:03;;;;;;;8.70;2.28;;;7.30;80.30;;;;;;5074178;28;20040;-63
2022/12/27 17:21:38;;;;;;;7.05;2.67;;;7.20;80.60;;;;;;5074596;28;20086;-64
2022/12/27 17:24:16;;;;;;;11.10;2.10;;;7.30;80.30;;;;;;5073997;28;20107;-64
2022/12/27 17:26:59;;;;;;;7.75;2.22;;;7.30;80.10;;;;;;5073731;28;20055;-63
2022/12/27 17:29:44;;;;;;;3.55;1.60;;;7.30;79.50;;;;;;5072905;28;20017;-63
2022/12/27 17:32:45;;;;;;;12.20;2.75;;;7.30;79.60;;;;;;5074099;28;20031;-62
2022/12/27 17:35:22;;;;;;;4.53;2.08;;;7.30;79.80;;;;;;5073873;28;20041;-63
2022/12/27 17:38:00;;;;;;;9.52;2.85;;;7.30;79.70;;;;;;5073925;28;20027;-62
2022/12/27 17:40:38;;;;;;;6.93;2.08;;;7.20;80.00;;;;;;5073701;28;20062;-64
2022/12/27 17:46:19;;;;;;;5.43;2.25;;;7.20;79.90;;;;;;5074218;28;20156;-62
2022/12/27 17:48:45;;;;;;;4.60;1.85;;;7.20;79.90;;;;;;5075137;28;20024;-65
2022/12/27 17:51:16;;;;;;;3.63;2.03;;;7.30;79.70;;;;;;5073905;28;20067;-62
2022/12/27 17:59:30;;;;;;;7.88;1.92;;;7.20;79.70;;;;;;5074363;28;20085;-63
2022/12/27 18:02:05;;;;;;;11.75;2.95;;;7.20;79.70;;;;;;5073413;28;20037;-63
2022/12/27 18:04:35;;;;;;;7.47;2.58;;;7.20;79.60;;;;;;5073770;28;20020;-63
2022/12/27 18:07:04;;;;;;;5.93;1.85;;;7.20;79.50;;;;;;5073738;28;20498;-63
2022/12/27 18:09:39;;;;;;;10.75;2.72;;;7.10;79.60;;;;;;5073560;28;20457;-63
2022/12/27 18:12:26;;;;;;;5.30;1.48;;;7.00;79.70;;;;;;5073761;28;20028;-62
2022/12/27 18:15:02;;;;;;;3.45;2.08;;;7.00;79.70;;;;;;5073496;28;20035;-61
2022/12/27 18:17:41;;;;;;;5.10;2.60;;;7.00;79.60;;;;;;5073497;28;20152;-62
2022/12/27 18:20:39;;;;;;;10.98;2.17;;;6.90;79.70;;;;;;5072724;28;20028;-63
2022/12/27 18:23:13;;;;;;;9.15;1.92;;;6.80;80.00;;;;;;5050302;28;20045;-63
2022/12/27 18:25:42;;;;;;;9.32;1.92;;;6.80;80.10;;;;;;5073409;28;20514;-64
2022/12/27 18:28:25;;;;;;;7.75;2.10;;;6.70;80.30;;;;;;5073193;28;20099;-63
2022/12/27 18:31:23;;;;;;;8.95;2.03;;;6.60;80.90;;;;;;5073354;28;20353;-63
2022/12/27 18:34:08;;;;;;;4.20;2.13;;;6.60;80.70;;;;;;5070099;28;20045;-63
2022/12/27 18:36:36;;;;;;;9.15;2.30;;;6.50;80.80;;;;;;5072769;28;20447;-63
2022/12/27 18:39:07;;;;;;;4.15;1.27;;;6.50;81.10;;;;;;5071814;28;20355;-62
2022/12/27 18:41:41;;;;;;;7.10;2.08;;;6.40;81.40;;;;;;5072904;28;20025;-63
2022/12/27 18:44:15;;;;;;;7.40;2.95;;;6.30;81.20;;;;;;5073081;28;20067;-62
2022/12/27 18:46:41;;;;;;;7.30;2.53;;;6.40;80.80;;;;;;5073005;28;20459;-63
2022/12/27 18:49:30;;;;;;;10.07;2.40;;;6.40;81.10;;;;;;5072899;28;20025;-62
2022/12/27 18:51:55;;;;;;;5.85;2.90;;;6.40;81.00;;;;;;5073357;28;20048;-62
2022/12/27 18:54:27;;;;;;;7.10;2.17;;;6.30;81.30;;;;;;5072816;28;20036;-62
2022/12/27 18:56:56;;;;;;;6.20;1.98;;;6.30;81.50;;;;;;5071546;28;20388;-63
2022/12/27 18:59:30;;;;;;;8.57;2.50;;;6.40;81.20;;;;;;5071638;28;20028;-62
2022/12/27 19:01:59;;;;;;;4.03;1.88;;;6.40;81.10;;;;;;5072498;28;20573;-62
2022/12/27 19:04:30;;;;;;;6.32;2.80;;;6.40;81.10;;;;;;5072948;28;20024;-63
2022/12/27 19:07:11;;;;;;;8.27;2.03;;;6.30;81.30;;;;;;5072684;28;20016;-62
2022/12/27 19:09:36;;;;;;;5.45;1.52;;;6.30;81.10;;;;;;5072726;28;20036;-63
2022/12/27 19:12:05;;;;;;;6.47;1.98;;;6.30;81.10;;;;;;5073039;28;20032;-62
2022/12/27 19:14:40;;;;;;;11.68;1.65;;;6.20;81.10;;;;;;5072751;28;20028;-64
2022/12/27 19:17:06;;;;;;;2.58;1.75;;;6.20;81.40;;;;;;5072872;28;20021;-63
2022/12/27 19:19:31;;;;;;;3.17;1.42;;;6.20;81.40;;;;;;5072774;28;20069;-65
2022/12/27 19:21:57;;;;;;;6.63;1.77;;;6.20;81.40;;;;;;5073190;28;20035;-64
2022/12/27 19:24:26;;;;;;;3.63;1.60;;;6.20;81.30;;;;;;5073173;28;20376;-63
2022/12/27 19:26:53;;;;;;;7.70;2.15;;;6.20;81.00;;;;;;5072732;28;20021;-63
2022/12/27 19:29:22;;;;;;;2.85;1.98;;;6.20;81.20;;;;;;5072469;28;20380;-63
2022/12/27 19:32:08;;;;;;;6.65;1.80;;;6.20;81.30;;;;;;5072592;28;20043;-63
2022/12/27 19:34:51;;;;;;;9.77;2.25;;;6.10;81.40;;;;;;5055110;28;20086;-63
2022/12/27 19:37:18;;;;;;;6.85;2.58;;;6.10;81.20;;;;;;5072532;28;20058;-62
2022/12/27 19:39:46;;;;;;;3.90;2.25;;;6.10;81.40;;;;;;5072530;28;20024;-65
2022/12/27 19:42:17;;;;;;;7.93;1.75;;;6.00;81.30;;;;;;5071138;28;20035;-63
2022/12/27 19:44:42;;;;;;;;;;;5.90;81.30;;;;;;5072913;28;20368;-63
2022/12/27 19:47:12;;;;;;;2.60;1.30;;;6.00;81.30;;;;;;5072201;28;19908;-63
2022/12/27 19:49:37;;;;;;;5.90;1.92;;;6.00;81.40;;;;;;5090637;28;20021;-63
2022/12/27 19:52:07;;;;;;;7.97;1.92;;;6.00;81.40;;;;;;5076288;28;20430;-63
2022/12/27 19:54:33;;;;;;;11.23;2.25;;;5.90;81.40;;;;;;5075880;28;20031;-62
2022/12/27 19:56:59;;;;;;;8.18;2.53;;;5.90;81.50;;;;;;5076332;28;20036;-63
2022/12/27 19:59:25;;;;;;;5.18;1.80;;;5.90;81.40;;;;;;5075954;28;20487;-63
2022/12/27 20:01:51;;;;;;;6.07;1.67;;;5.90;81.40;;;;;;5075480;28;20060;-64
2022/12/27 20:04:17;;;;;;;7.07;1.90;;;5.90;81.50;;;;;;5075813;28;20475;-63
2022/12/27 20:06:45;;;;;;;7.15;1.70;;;5.90;81.20;;;;;;5075761;28;20020;-63
2022/12/27 20:09:16;;;;;;;2.00;1.20;;;5.90;81.20;;;;;;5075929;28;20060;-63
2022/12/27 20:11:42;;;;;;;7.63;2.85;;;5.90;81.20;;;;;;5075664;28;20039;-62
2022/12/27 20:14:07;;;;;;;3.90;1.75;;;5.90;81.40;;;;;;5075827;28;20032;-62
2022/12/27 20:16:33;;;;;;;5.13;2.15;;;5.80;81.60;;;;;;5075744;28;20107;-63
2022/12/27 20:19:00;;;;;;;4.82;2.28;;;5.90;81.40;;;;;;5075643;28;20121;-63
2022/12/27 20:21:26;;;;;;;8.32;1.63;;;5.80;81.50;;;;;;5091605;28;20094;-63
2022/12/27 20:23:51;;;;;;;6.30;2.05;;;5.80;81.50;;;;;;5075417;28;20025;-62
2022/12/27 20:26:20;;;;;;;5.55;1.30;;;5.70;81.70;;;;;;5075503;28;20107;-62
2022/12/27 20:28:46;;;;;;;8.05;2.25;;;5.80;81.30;;;;;;5075377;28;20031;-63
2022/12/27 20:31:15;;;;;;;5.70;2.33;;;5.80;81.10;;;;;;5090929;28;20024;-63
2022/12/27 20:33:41;;;;;;;6.75;2.72;;;5.80;81.20;;;;;;5075265;28;20103;-63
2022/12/27 20:36:07;;;;;;;10.00;3.30;;;5.70;81.00;;;;;;5075288;28;20025;-63
2022/12/27 20:38:33;;;;;;;8.40;2.88;;;5.70;81.30;;;;;;5075149;28;20441;-62
2022/12/27 20:41:26;;;;;;;7.78;2.38;;;5.70;81.10;;;;;;5075068;28;20035;-62
2022/12/27 20:43:56;;;;;;;4.43;1.80;;;5.70;81.20;;;;;;5073581;28;20035;-64
2022/12/27 20:46:22;;;;;;;8.90;1.80;;;5.70;81.30;;;;;;5075230;28;20020;-63
2022/12/27 20:48:48;;;;;;;7.60;2.22;;;5.80;80.70;;;;;;5075189;28;20750;-64
2022/12/27 20:51:19;;;;;;;5.15;2.30;;;5.70;80.60;;;;;;5075196;28;20059;-63
2022/12/27 20:53:49;;;;;;;4.03;2.58;;;5.70;81.10;;;;;;5075458;28;20039;-63
2022/12/27 20:56:15;;;;;;;7.32;2.30;;;5.60;81.10;;;;;;5073706;28;20028;-63
2022/12/27 20:58:41;;;;;;;10.40;2.70;;;5.60;81.10;;;;;;5075292;28;20043;-63
